createdAt,value
2019-05-25T00:00:53.783Z,12.10
2019-05-25T00:03:22.453Z,11.48
2019-05-25T00:05:51.145Z,11.15
2019-05-25T00:08:19.567Z,11.05
2019-05-25T00:10:48.213Z,10.65
2019-05-25T00:13:16.625Z,11.93
2019-05-25T00:15:45.009Z,12.15
2019-05-25T00:18:13.765Z,11.15
2019-05-25T00:20:42.158Z,12.20
2019-05-25T00:23:10.568Z,11.00
2019-05-25T00:25:39.003Z,11.12
2019-05-25T00:28:07.424Z,11.28
2019-05-25T00:30:35.881Z,11.48
2019-05-25T00:33:04.348Z,11.43
2019-05-25T00:35:33.576Z,12.45
2019-05-25T00:38:01.975Z,12.20
2019-05-25T00:40:30.379Z,13.28
2019-05-25T00:42:58.801Z,12.60
2019-05-25T00:45:27.460Z,11.20
2019-05-25T00:47:56.167Z,12.43
2019-05-25T00:50:24.842Z,12.78
2019-05-25T00:52:53.249Z,11.53
2019-05-25T00:55:21.642Z,12.47
2019-05-25T00:57:50.187Z,12.10
2019-05-25T01:00:18.930Z,12.28
2019-05-25T01:02:47.419Z,12.37
2019-05-25T01:05:16.690Z,13.35
2019-05-25T01:07:45.081Z,16.05
2019-05-25T01:10:13.926Z,16.05
2019-05-25T01:12:42.339Z,14.85
2019-05-25T01:15:11.936Z,12.33
2019-05-25T01:17:40.395Z,11.63
2019-05-25T01:20:10.860Z,12.65
2019-05-25T01:22:39.589Z,12.90
2019-05-25T01:25:08.707Z,13.55
2019-05-25T01:27:37.177Z,13.20
2019-05-25T01:30:11.647Z,13.10
2019-05-25T01:32:40.067Z,12.37
2019-05-25T01:35:08.640Z,13.18
2019-05-25T01:37:37.027Z,13.05
2019-05-25T01:40:06.664Z,14.30
2019-05-25T01:42:35.076Z,14.75
2019-05-25T01:45:04.844Z,14.30
2019-05-25T01:47:33.558Z,14.50
2019-05-25T01:50:01.966Z,15.13
2019-05-25T01:52:30.376Z,14.50
2019-05-25T01:55:00.175Z,13.25
2019-05-25T01:57:29.312Z,13.30
2019-05-25T01:59:57.736Z,12.93
2019-05-25T02:02:26.481Z,12.53
2019-05-25T02:04:55.165Z,11.55
2019-05-25T02:07:23.571Z,13.40
2019-05-25T02:09:51.983Z,12.37
2019-05-25T02:12:20.711Z,12.95
2019-05-25T02:14:49.401Z,12.68
2019-05-25T02:17:18.166Z,12.07
2019-05-25T02:19:46.579Z,11.63
2019-05-25T02:22:14.977Z,11.63
2019-05-25T02:24:43.402Z,11.08
2019-05-25T02:27:11.815Z,10.45
2019-05-25T02:29:40.242Z,11.30
2019-05-25T02:32:08.628Z,11.55
2019-05-25T02:34:37.477Z,11.63
2019-05-25T02:37:05.867Z,12.25
2019-05-25T02:39:34.644Z,10.88
2019-05-25T02:42:03.515Z,11.00
2019-05-25T02:44:32.208Z,11.97
2019-05-25T02:47:00.902Z,12.85
2019-05-25T02:49:29.316Z,12.35
2019-05-25T02:51:58.071Z,14.85
2019-05-25T02:54:26.524Z,11.60
2019-05-25T02:56:54.869Z,12.23
2019-05-25T02:59:23.616Z,12.37
2019-05-25T03:01:52.623Z,12.82
2019-05-25T03:04:21.383Z,12.00
2019-05-25T03:06:51.685Z,12.73
2019-05-25T03:09:21.614Z,12.45
2019-05-25T03:11:51.186Z,11.60
2019-05-25T03:14:19.650Z,11.85
2019-05-25T03:16:48.091Z,11.12
2019-05-25T03:19:16.493Z,11.08
2019-05-25T03:21:44.896Z,11.10
2019-05-25T03:24:13.287Z,11.08
2019-05-25T03:26:41.711Z,10.55
2019-05-25T03:29:10.112Z,10.40
2019-05-25T03:31:38.805Z,11.00
2019-05-25T03:34:07.475Z,11.30
2019-05-25T03:36:35.882Z,11.97
2019-05-25T03:39:06.608Z,10.60
2019-05-25T03:41:35.013Z,10.48
2019-05-25T03:44:03.404Z,11.22
2019-05-25T03:46:31.832Z,11.83
2019-05-25T03:49:00.225Z,12.58
2019-05-25T03:51:28.646Z,12.18
2019-05-25T03:53:57.438Z,13.10
2019-05-25T03:56:25.861Z,13.65
2019-05-25T03:58:54.272Z,11.88
2019-05-25T04:01:22.687Z,11.95
2019-05-25T04:03:51.092Z,11.60
2019-05-25T04:06:19.516Z,11.35
2019-05-25T04:08:47.914Z,11.48
2019-05-25T04:11:16.353Z,11.83
2019-05-25T04:13:44.735Z,11.48
2019-05-25T04:16:13.401Z,11.43
2019-05-25T04:18:41.797Z,11.68
2019-05-25T04:21:10.239Z,11.40
2019-05-25T04:23:38.603Z,11.48
2019-05-25T04:26:21.447Z,11.20
2019-05-25T04:28:37.124Z,11.43
2019-05-25T04:31:05.532Z,10.48
2019-05-25T04:33:33.921Z,11.90
2019-05-25T04:36:02.627Z,11.65
2019-05-25T04:38:31.296Z,12.20
2019-05-25T04:40:59.695Z,11.75
2019-05-25T04:43:28.093Z,11.60
2019-05-25T04:45:56.826Z,11.28
2019-05-25T04:48:25.233Z,11.05
2019-05-25T04:50:53.624Z,11.50
2019-05-25T04:53:22.039Z,11.15
2019-05-25T04:55:50.773Z,10.68
2019-05-25T04:58:19.450Z,9.80
2019-05-25T05:00:47.860Z,11.75
2019-05-25T05:03:16.282Z,11.00
2019-05-25T05:05:44.664Z,10.10
2019-05-25T05:08:13.064Z,9.55
2019-05-25T05:10:42.044Z,9.38
2019-05-25T05:13:10.446Z,9.18
2019-05-25T05:15:38.835Z,9.80
2019-05-25T05:18:07.237Z,10.03
2019-05-25T05:20:35.629Z,8.98
2019-05-25T05:23:04.031Z,8.40
2019-05-25T05:25:32.427Z,8.20
2019-05-25T05:28:01.113Z,8.18
2019-05-25T05:30:35.079Z,7.67
2019-05-25T05:33:03.727Z,7.53
2019-05-25T05:35:34.380Z,7.37
2019-05-25T05:38:06.412Z,7.55
2019-05-25T05:40:36.670Z,6.72
2019-05-25T05:43:08.476Z,7.50
2019-05-25T05:45:38.703Z,7.37
2019-05-25T05:48:10.782Z,7.15
2019-05-25T05:50:40.417Z,7.22
2019-05-25T05:53:09.191Z,7.37
2019-05-25T05:55:37.599Z,7.25
2019-05-25T05:58:05.992Z,7.35
2019-05-25T06:00:34.739Z,7.70
2019-05-25T06:03:03.416Z,7.22
2019-05-25T06:05:31.881Z,7.20
2019-05-25T06:08:00.285Z,7.15
2019-05-25T06:10:28.695Z,7.10
2019-05-25T06:12:57.099Z,7.78
2019-05-25T06:15:25.831Z,6.62
2019-05-25T06:17:54.712Z,7.37
2019-05-25T06:20:23.887Z,7.22
2019-05-25T06:22:52.294Z,6.78
2019-05-25T06:25:20.755Z,7.65
2019-05-25T06:27:49.147Z,7.85
2019-05-25T06:30:18.819Z,8.93
2019-05-25T06:32:47.554Z,8.50
2019-05-25T06:35:16.496Z,8.50
2019-05-25T06:37:45.242Z,8.88
2019-05-25T06:40:14.484Z,9.18
2019-05-25T06:42:43.222Z,9.30
2019-05-25T06:45:13.973Z,9.63
2019-05-25T06:47:42.367Z,9.70
2019-05-25T06:50:12.859Z,9.88
2019-05-25T06:52:41.558Z,9.70
2019-05-25T06:55:10.448Z,9.10
2019-05-25T06:57:43.689Z,8.73
2019-05-25T07:00:09.863Z,9.20
2019-05-25T07:02:38.366Z,9.45
2019-05-25T07:05:09.537Z,8.83
2019-05-25T07:07:37.929Z,9.43
2019-05-25T07:10:08.474Z,8.88
2019-05-25T07:12:36.863Z,9.28
2019-05-25T07:15:07.576Z,9.95
2019-05-25T07:17:35.971Z,8.50
2019-05-25T07:20:09.564Z,9.35
2019-05-25T07:22:38.027Z,9.83
2019-05-25T07:25:07.147Z,9.20
2019-05-25T07:27:35.543Z,9.73
2019-05-25T07:30:05.880Z,9.18
2019-05-25T07:32:34.951Z,9.13
2019-05-25T07:35:04.362Z,9.25
2019-05-25T07:37:33.060Z,8.30
2019-05-25T07:40:01.759Z,9.48
2019-05-25T07:42:30.439Z,9.35
2019-05-25T07:44:58.889Z,10.18
2019-05-25T07:47:27.303Z,9.20
2019-05-25T07:49:55.985Z,9.75
2019-05-25T07:52:24.378Z,9.85
2019-05-25T10:15:10.868Z,10.88
2019-05-25T10:18:01.219Z,11.50
2019-05-25T10:20:33.707Z,10.90
2019-05-25T10:23:05.122Z,9.38
2019-05-25T10:25:45.678Z,9.40
2019-05-25T10:28:15.961Z,9.48
2019-05-25T10:30:41.827Z,8.55
2019-05-25T10:33:10.318Z,9.23
2019-05-25T10:35:38.716Z,9.58
2019-05-25T10:38:07.516Z,9.05
2019-05-25T10:40:35.919Z,9.68
2019-05-25T10:43:05.912Z,10.32
2019-05-25T10:45:34.513Z,10.63
2019-05-25T10:48:03.097Z,10.08
2019-05-25T10:50:31.522Z,11.35
2019-05-25T10:53:00.043Z,10.30
2019-05-25T10:55:28.486Z,10.28
2019-05-25T10:57:56.931Z,10.68
2019-05-25T11:00:26.596Z,11.38
2019-05-25T11:02:55.055Z,11.22
2019-05-25T11:05:23.759Z,11.70
2019-05-25T11:07:52.185Z,11.50
2019-05-25T11:10:20.868Z,11.78
2019-05-25T11:12:49.256Z,11.95
2019-05-25T11:15:17.817Z,12.98
2019-05-25T11:17:46.248Z,12.88
2019-05-25T11:20:15.228Z,12.28
2019-05-25T11:22:43.673Z,13.38
2019-05-25T11:25:13.696Z,13.43
2019-05-25T11:27:53.294Z,14.10
2019-05-25T11:30:22.104Z,14.93
2019-05-25T11:32:50.666Z,14.55
2019-05-25T11:35:19.461Z,15.25
2019-05-25T11:37:47.923Z,14.78
2019-05-25T11:40:16.785Z,15.00
2019-05-25T11:42:45.205Z,14.43
2019-05-25T11:45:15.432Z,15.00
2019-05-25T11:47:43.830Z,13.85
2019-05-25T11:50:13.289Z,13.08
2019-05-25T11:52:42.192Z,14.38
2019-05-25T11:55:11.614Z,13.15
2019-05-25T11:57:40.555Z,12.55
2019-05-25T12:00:24.208Z,12.90
2019-05-25T12:02:41.872Z,13.03
2019-05-25T12:05:12.387Z,13.95
2019-05-25T12:07:44.426Z,13.78
2019-05-25T12:10:13.297Z,13.78
2019-05-25T12:12:44.963Z,14.75
2019-05-25T12:15:15.426Z,15.28
2019-05-25T12:17:44.053Z,14.23
2019-05-25T12:20:13.262Z,13.98
2019-05-25T12:22:41.712Z,13.08
2019-05-25T12:25:10.487Z,13.22
2019-05-25T12:27:38.936Z,10.78
2019-05-25T12:30:09.509Z,11.25
2019-05-25T12:32:37.933Z,12.65
2019-05-25T12:35:07.295Z,10.45
2019-05-25T12:37:35.805Z,11.63
2019-05-25T12:40:05.792Z,10.23
2019-05-25T12:42:34.220Z,11.30
2019-05-25T12:45:02.640Z,10.98
2019-05-25T12:47:31.054Z,11.35
2019-05-25T12:49:59.483Z,11.33
2019-05-25T12:52:27.931Z,11.48
2019-05-25T12:54:56.346Z,11.75
2019-05-25T12:57:35.167Z,10.38
2019-05-25T13:00:15.728Z,11.28
2019-05-25T13:02:39.982Z,11.10
2019-05-25T13:05:12.194Z,12.37
2019-05-25T13:07:42.295Z,12.37
2019-05-25T13:10:13.919Z,14.53
2019-05-25T13:12:42.326Z,12.75
2019-05-25T13:15:10.981Z,13.03
2019-05-25T13:17:39.384Z,13.10
2019-05-25T13:20:08.115Z,11.93
2019-05-25T13:22:36.799Z,10.53
2019-05-25T13:25:08.416Z,10.05
2019-05-25T13:27:36.812Z,9.73
2019-05-25T13:30:06.687Z,7.83
2019-05-25T13:32:35.118Z,7.97
2019-05-25T13:35:05.658Z,7.92
2019-05-25T13:37:34.345Z,7.60
2019-05-25T13:40:02.919Z,8.50
2019-05-25T13:42:31.343Z,7.33
2019-05-25T13:44:59.763Z,8.40
2019-05-25T13:47:28.175Z,8.00
2019-05-25T13:49:56.596Z,7.97
2019-05-25T13:52:25.042Z,8.73
2019-05-25T13:54:53.471Z,5.53
2019-05-25T13:57:24.636Z,4.83
2019-05-25T13:59:53.116Z,4.75
2019-05-25T14:02:21.717Z,4.95
2019-05-25T14:04:50.161Z,5.25
2019-05-25T14:07:18.712Z,5.20
2019-05-25T14:09:47.192Z,5.35
2019-05-25T14:12:15.796Z,4.92
2019-05-25T14:14:44.336Z,4.95
2019-05-25T14:17:12.847Z,5.55
2019-05-25T14:19:41.630Z,5.35
2019-05-25T14:22:10.296Z,5.28
2019-05-25T14:24:38.775Z,5.53
2019-05-25T14:27:08.854Z,5.70
2019-05-25T14:29:37.322Z,5.60
2019-05-25T14:32:08.872Z,5.40
2019-05-25T14:34:37.335Z,5.30
2019-05-25T14:37:05.883Z,4.60
2019-05-25T14:39:34.352Z,5.10
2019-05-25T14:42:02.975Z,4.55
2019-05-25T14:44:32.643Z,4.30
2019-05-25T14:47:01.226Z,4.35
2019-05-25T14:49:29.766Z,4.47
2019-05-25T14:51:58.206Z,4.45
2019-05-25T14:54:40.957Z,4.30
2019-05-25T14:56:57.061Z,4.37
2019-05-25T14:59:37.578Z,5.03
2019-05-25T15:02:08.369Z,5.10
2019-05-25T15:04:36.921Z,5.00
2019-05-25T15:09:57.190Z,4.90
2019-05-25T15:12:25.274Z,4.97
2019-05-25T15:14:58.504Z,5.05
2019-05-25T15:17:27.273Z,4.85
2019-05-25T15:22:53.628Z,5.00
2019-05-25T15:25:30.650Z,4.78
2019-05-25T15:28:06.960Z,4.70
2019-05-25T15:30:28.278Z,4.85
2019-05-25T15:32:56.899Z,4.12
2019-05-25T15:35:25.336Z,4.30
2019-05-25T15:37:55.520Z,4.67
2019-05-25T15:40:25.759Z,4.65
2019-05-25T15:42:55.651Z,4.50
2019-05-25T15:45:27.196Z,4.60
2019-05-25T15:51:05.396Z,4.08
2019-05-25T15:53:21.438Z,4.40
2019-05-25T15:55:55.639Z,3.95
2019-05-25T15:58:25.439Z,4.25
2019-05-25T16:00:58.117Z,4.20
2019-05-25T16:03:38.638Z,4.10
2019-05-25T16:05:58.581Z,4.67
2019-05-25T16:08:28.650Z,4.03
2019-05-25T16:10:58.880Z,4.20
2019-05-25T16:13:34.322Z,4.37
2019-05-25T16:16:03.882Z,4.40
2019-05-25T16:18:40.498Z,4.62
2019-05-25T16:22:44.319Z,4.58
2019-05-25T16:23:39.474Z,4.45
2019-05-25T16:26:14.527Z,4.62
2019-05-25T16:28:45.280Z,4.80
2019-05-25T16:31:13.719Z,4.75
2019-05-25T16:33:42.167Z,5.08
2019-05-25T16:36:10.622Z,4.50
2019-05-25T16:38:39.069Z,4.87
2019-05-25T16:41:07.545Z,5.90
2019-05-25T16:43:36.042Z,6.35
2019-05-25T16:46:04.541Z,7.72
2019-05-25T16:48:33.067Z,7.72
2019-05-25T16:51:01.707Z,7.55
2019-05-25T16:53:30.126Z,8.85
2019-05-25T16:55:58.566Z,8.30
2019-05-25T16:58:27.073Z,8.03
2019-05-25T17:00:55.545Z,9.15
2019-05-25T17:03:28.692Z,8.73
2019-05-25T17:06:00.736Z,8.65
2019-05-25T17:08:29.244Z,9.55
2019-05-25T17:10:59.397Z,9.58
2019-05-25T17:13:27.825Z,9.00
2019-05-25T17:15:56.334Z,9.00
2019-05-25T17:18:25.020Z,9.43
2019-05-25T17:20:54.986Z,9.15
2019-05-25T17:23:23.532Z,9.43
2019-05-25T17:25:52.174Z,9.60
2019-05-25T17:28:20.679Z,9.75
2019-05-25T17:30:49.228Z,9.83
2019-05-25T17:33:17.665Z,9.73
2019-05-25T17:35:46.161Z,9.48
2019-05-25T17:41:06.984Z,9.90
2019-05-25T17:45:34.899Z,10.48
2019-05-25T17:46:24.353Z,11.70
2019-05-25T17:48:49.881Z,11.35
2019-05-25T17:51:33.381Z,11.70
2019-05-25T17:53:53.332Z,11.08
2019-05-25T17:59:19.913Z,12.55
2019-05-25T18:07:45.674Z,11.12
2019-05-25T18:13:17.859Z,10.30
2019-05-25T18:21:53.507Z,9.58
2019-05-25T18:37:55.291Z,7.95
2019-05-25T18:43:16.250Z,8.98
2019-05-25T18:45:56.167Z,8.15
2019-05-25T18:48:27.870Z,8.93
2019-05-25T19:30:19.300Z,9.58
2019-05-25T19:32:48.225Z,10.82
2019-05-25T19:35:17.074Z,9.95
2019-05-25T19:38:33.365Z,10.40
2019-05-25T19:40:41.147Z,10.98
2019-05-25T19:43:09.816Z,10.95
2019-05-25T19:45:38.450Z,10.48
2019-05-25T19:48:08.089Z,11.48
2019-05-25T19:51:47.579Z,12.00
2019-05-25T19:53:17.287Z,11.00
2019-05-25T19:55:45.699Z,11.53
2019-05-25T19:58:16.277Z,11.30
2019-05-25T20:00:44.822Z,11.15
2019-05-25T20:03:13.450Z,11.30
2019-05-25T20:05:41.971Z,11.55
2019-05-25T20:08:10.471Z,10.90
2019-05-25T20:10:41.133Z,11.57
2019-05-25T20:13:09.412Z,11.80
2019-05-25T20:15:37.923Z,12.53
2019-05-25T20:18:20.377Z,11.50
2019-05-25T20:20:40.017Z,10.72
2019-05-25T20:23:08.597Z,11.68
2019-05-25T20:25:37.130Z,11.40
2019-05-25T20:28:07.247Z,12.00
2019-05-25T20:30:37.488Z,12.10
2019-05-25T20:33:05.957Z,12.55
2019-05-25T20:35:34.479Z,13.20
2019-05-25T20:38:03.036Z,13.15
2019-05-25T20:40:31.492Z,13.13
2019-05-25T20:42:59.993Z,14.55
2019-05-25T20:45:28.446Z,14.73
2019-05-25T20:47:57.083Z,15.00
2019-05-25T20:50:25.606Z,14.70
2019-05-25T20:52:54.105Z,14.40
2019-05-25T20:55:22.665Z,13.98
2019-05-25T20:57:51.297Z,14.58
2019-05-25T21:00:23.419Z,16.35
2019-05-25T21:03:04.759Z,15.10
2019-05-25T21:05:20.417Z,15.38
2019-05-25T21:07:48.880Z,15.10
2019-05-25T21:10:22.001Z,15.03
2019-05-25T21:12:48.054Z,14.63
2019-05-25T21:15:16.669Z,15.20
2019-05-25T21:17:45.422Z,14.50
2019-05-25T21:20:14.342Z,14.75
2019-05-25T21:22:42.873Z,13.32
2019-05-25T21:25:11.986Z,12.90
2019-05-25T21:27:40.444Z,13.35
2019-05-25T21:30:09.998Z,13.43
2019-05-25T21:32:38.552Z,12.95
2019-05-25T21:35:08.346Z,13.60
2019-05-25T21:37:36.944Z,13.10
2019-05-25T21:40:07.687Z,13.18
2019-05-25T21:42:37.889Z,13.15
2019-05-25T21:45:07.390Z,13.00
2019-05-25T21:47:35.913Z,12.98
2019-05-25T21:50:06.194Z,12.25
2019-05-25T21:52:34.715Z,12.03
2019-05-25T21:55:03.409Z,13.22
2019-05-25T21:57:31.868Z,13.20
2019-05-25T22:00:00.298Z,13.68
2019-05-25T22:02:28.734Z,12.30
2019-05-25T22:04:57.217Z,13.50
2019-05-25T22:07:25.723Z,12.85
2019-05-25T22:09:54.159Z,13.45
2019-05-25T22:12:22.637Z,12.25
2019-05-25T22:14:51.097Z,12.68
2019-05-25T22:17:19.569Z,12.85
2019-05-25T22:19:48.029Z,12.13
2019-05-25T22:22:22.325Z,12.18
2019-05-25T22:24:53.732Z,11.78
2019-05-25T22:27:22.172Z,11.20
2019-05-25T22:29:50.685Z,10.82
2019-05-25T22:32:19.155Z,10.85
2019-05-25T22:34:47.586Z,12.07
2019-05-25T22:37:16.017Z,12.05
2019-05-25T22:39:44.476Z,11.78
2019-05-25T22:42:12.947Z,11.80
2019-05-25T22:44:41.368Z,12.23
2019-05-25T22:47:09.830Z,12.95
2019-05-25T22:49:38.328Z,12.20
2019-05-25T22:52:06.801Z,12.60
2019-05-25T22:54:35.272Z,13.25
2019-05-25T22:57:04.540Z,12.80
2019-05-25T22:59:33.055Z,12.60
2019-05-25T23:02:01.521Z,12.40
2019-05-25T23:04:29.994Z,12.60
2019-05-25T23:06:58.769Z,13.20
2019-05-25T23:09:27.586Z,12.93
2019-05-25T23:11:56.070Z,14.20
2019-05-25T23:14:24.566Z,14.20
2019-05-25T23:16:53.053Z,14.00
2019-05-25T23:19:21.481Z,13.90
2019-05-25T23:21:49.930Z,15.30
2019-05-25T23:24:18.342Z,15.10
2019-05-25T23:26:46.955Z,14.95
2019-05-25T23:29:15.370Z,15.08
2019-05-25T23:31:43.783Z,14.85
2019-05-25T23:34:12.201Z,13.65
2019-05-25T23:36:40.629Z,14.68
2019-05-25T23:39:09.039Z,13.45
2019-05-25T23:41:37.483Z,12.98
2019-05-25T23:44:05.996Z,13.38
2019-05-25T23:46:34.454Z,13.30
2019-05-25T23:49:03.046Z,13.55
2019-05-25T23:51:31.510Z,14.05
2019-05-25T23:53:59.979Z,13.60
2019-05-25T23:56:28.518Z,13.95
2019-05-25T23:58:56.939Z,13.15
